createdAt,value
2019-03-19T00:00:00.359Z,112.37
2019-03-19T00:02:34.167Z,114.67
2019-03-19T00:05:07.344Z,113.83
2019-03-19T00:07:40.138Z,138.65
2019-03-19T00:10:12.633Z,119.93
2019-03-19T00:12:45.765Z,128.30
2019-03-19T00:15:18.327Z,125.25
2019-03-19T00:17:51.118Z,137.15
2019-03-19T00:20:23.436Z,136.55
2019-03-19T00:22:55.913Z,124.50
2019-03-19T00:25:30.506Z,126.12
2019-03-19T00:28:04.771Z,127.35
2019-03-19T00:30:37.654Z,131.40
2019-03-19T00:33:10.421Z,127.80
2019-03-19T00:35:43.015Z,149.02
2019-03-19T00:38:15.764Z,149.20
2019-03-19T00:40:48.425Z,122.58
2019-03-19T00:43:21.070Z,123.53
2019-03-19T00:45:53.474Z,128.10
2019-03-19T00:48:26.145Z,124.38
2019-03-19T00:50:59.739Z,117.05
2019-03-19T00:53:32.114Z,120.22
2019-03-19T00:56:04.619Z,120.72
2019-03-19T00:58:37.370Z,115.22
2019-03-19T01:01:09.884Z,115.17
2019-03-19T01:03:42.500Z,113.60
2019-03-19T01:06:14.929Z,118.33
2019-03-19T01:08:47.545Z,114.72
2019-03-19T01:11:20.185Z,113.22
2019-03-19T01:13:52.775Z,117.95
2019-03-19T01:16:25.127Z,124.47
2019-03-19T01:18:57.844Z,118.42
2019-03-19T01:21:30.594Z,120.37
2019-03-19T01:24:02.979Z,125.02
2019-03-19T01:26:35.662Z,113.60
2019-03-19T01:29:08.201Z,115.25
2019-03-19T01:31:40.960Z,115.77
2019-03-19T01:34:13.292Z,116.30
2019-03-19T01:36:45.702Z,110.10
2019-03-19T01:39:18.089Z,112.42
2019-03-19T01:41:50.468Z,109.80
2019-03-19T01:44:22.933Z,99.25
2019-03-19T01:46:55.548Z,100.90
2019-03-19T01:49:27.942Z,103.45
2019-03-19T01:52:00.546Z,101.45
2019-03-19T01:54:33.162Z,110.97
2019-03-19T01:57:05.987Z,96.87
2019-03-19T01:59:39.502Z,91.95
2019-03-19T02:02:12.305Z,95.53
2019-03-19T02:04:44.755Z,99.07
2019-03-19T02:07:17.511Z,88.72
2019-03-19T02:09:49.788Z,92.95
2019-03-19T02:12:22.436Z,94.75
2019-03-19T02:14:54.732Z,94.90
2019-03-19T02:17:27.121Z,93.62
2019-03-19T02:19:59.647Z,96.15
2019-03-19T02:22:32.430Z,100.12
2019-03-19T02:25:05.027Z,99.65
2019-03-19T02:27:37.762Z,96.92
2019-03-19T02:30:12.885Z,95.67
2019-03-19T02:32:45.673Z,90.07
2019-03-19T02:35:18.114Z,89.83
2019-03-19T02:37:50.631Z,94.55
2019-03-19T02:40:23.115Z,91.22
2019-03-19T02:42:55.881Z,92.20
2019-03-19T02:45:28.880Z,92.02
2019-03-19T02:48:01.620Z,83.70
2019-03-19T02:50:34.095Z,87.88
2019-03-19T02:53:06.608Z,84.13
2019-03-19T02:55:39.590Z,91.35
2019-03-19T02:58:12.211Z,82.62
2019-03-19T03:00:44.780Z,80.57
2019-03-19T03:03:17.480Z,76.92
2019-03-19T03:05:49.645Z,80.00
2019-03-19T03:08:22.234Z,82.65
2019-03-19T03:10:54.456Z,80.85
2019-03-19T03:13:27.180Z,81.00
2019-03-19T03:15:59.489Z,82.57
2019-03-19T03:18:32.079Z,80.65
2019-03-19T03:21:04.545Z,81.67
2019-03-19T03:23:37.037Z,80.67
2019-03-19T03:26:10.099Z,81.47
2019-03-19T03:28:42.405Z,82.15
2019-03-19T03:31:15.513Z,83.30
2019-03-19T03:33:47.668Z,82.00
2019-03-19T03:36:20.315Z,86.00
2019-03-19T03:38:53.139Z,86.67
2019-03-19T03:41:25.792Z,84.62
2019-03-19T03:43:58.192Z,82.90
2019-03-19T03:46:30.783Z,85.45
2019-03-19T03:49:03.343Z,86.40
2019-03-19T03:51:36.155Z,83.22
2019-03-19T03:54:08.604Z,83.05
2019-03-19T03:56:41.183Z,80.42
2019-03-19T03:59:13.568Z,80.20
2019-03-19T04:01:46.317Z,83.97
2019-03-19T04:04:18.926Z,81.60
2019-03-19T04:06:52.271Z,77.22
2019-03-19T04:09:24.749Z,77.37
2019-03-19T04:11:57.277Z,80.65
2019-03-19T04:14:31.892Z,80.45
2019-03-19T04:17:04.397Z,80.17
2019-03-19T04:19:36.845Z,79.37
2019-03-19T04:22:09.669Z,77.05
2019-03-19T04:24:41.956Z,84.20
2019-03-19T04:27:16.366Z,77.10
2019-03-19T04:29:48.396Z,73.35
2019-03-19T04:32:20.761Z,72.27
2019-03-19T04:34:53.395Z,73.45
2019-03-19T04:37:25.970Z,74.05
2019-03-19T04:39:58.485Z,72.78
2019-03-19T04:42:30.780Z,76.65
2019-03-19T04:45:03.131Z,70.28
2019-03-19T04:47:35.862Z,71.42
2019-03-19T04:50:10.416Z,69.75
2019-03-19T04:52:43.831Z,67.97
2019-03-19T04:55:17.714Z,68.50
2019-03-19T04:57:50.454Z,68.57
2019-03-19T05:00:23.046Z,66.28
2019-03-19T05:02:55.429Z,69.82
2019-03-19T05:05:28.256Z,65.55
2019-03-19T05:08:00.926Z,64.87
2019-03-19T05:10:33.362Z,62.85
2019-03-19T05:13:07.147Z,64.92
2019-03-19T05:15:39.420Z,63.55
2019-03-19T05:18:12.061Z,60.20
2019-03-19T05:20:44.520Z,62.23
2019-03-19T05:23:16.928Z,60.60
2019-03-19T05:25:49.639Z,61.58
2019-03-19T05:28:22.022Z,60.85
2019-03-19T05:30:54.579Z,60.70
2019-03-19T05:33:27.183Z,59.48
2019-03-19T05:35:59.737Z,57.43
2019-03-19T05:38:32.377Z,58.42
2019-03-19T05:41:04.789Z,54.15
2019-03-19T05:43:37.165Z,54.42
2019-03-19T05:46:09.485Z,52.15
2019-03-19T05:48:42.066Z,51.92
2019-03-19T05:51:14.871Z,51.80
2019-03-19T05:53:47.258Z,52.67
2019-03-19T05:56:19.888Z,54.03
2019-03-19T05:58:52.437Z,52.43
2019-03-19T06:01:24.774Z,52.58
2019-03-19T06:03:57.620Z,51.35
2019-03-19T06:06:30.217Z,50.55
2019-03-19T06:09:03.195Z,49.77
2019-03-19T06:11:35.739Z,49.80
2019-03-19T06:14:08.411Z,50.10
2019-03-19T06:16:40.756Z,54.50
2019-03-19T06:19:13.276Z,50.67
2019-03-19T06:21:45.854Z,47.35
2019-03-19T06:24:18.683Z,48.45
2019-03-19T06:26:52.670Z,48.40
2019-03-19T06:29:25.236Z,49.25
2019-03-19T06:31:57.606Z,47.35
2019-03-19T06:34:29.992Z,48.02
2019-03-19T06:37:02.506Z,50.80
2019-03-19T06:39:35.022Z,49.45
2019-03-19T06:42:07.354Z,51.08
2019-03-19T06:44:40.748Z,48.38
2019-03-19T06:47:13.150Z,49.10
2019-03-19T06:49:45.774Z,47.13
2019-03-19T06:52:18.201Z,48.87
2019-03-19T06:54:50.744Z,47.75
2019-03-19T06:57:23.111Z,48.80
2019-03-19T06:59:55.261Z,45.90
2019-03-19T07:02:27.965Z,52.38
2019-03-19T07:05:00.820Z,48.85
2019-03-19T07:07:33.565Z,46.90
2019-03-19T07:10:08.400Z,49.20
2019-03-19T07:12:42.093Z,47.45
2019-03-19T07:15:16.782Z,45.85
2019-03-19T07:17:48.975Z,49.42
2019-03-19T07:20:23.283Z,47.03
2019-03-19T07:22:55.638Z,46.85
2019-03-19T07:25:28.923Z,45.38
2019-03-19T07:28:01.574Z,47.23
2019-03-19T07:30:34.091Z,49.63
2019-03-19T07:33:06.766Z,48.48
2019-03-19T07:35:39.310Z,47.58
2019-03-19T07:38:11.649Z,47.75
2019-03-19T07:41:03.635Z,46.88
2019-03-19T07:43:36.401Z,46.70
2019-03-19T07:46:09.104Z,45.60
2019-03-19T07:48:42.203Z,47.38
2019-03-19T07:51:15.181Z,46.68
2019-03-19T07:53:47.540Z,47.05
2019-03-19T07:56:20.318Z,45.23
2019-03-19T07:58:52.520Z,48.33
2019-03-19T08:01:24.976Z,46.35
2019-03-19T08:03:57.768Z,47.90
2019-03-19T08:06:32.646Z,47.27
2019-03-19T08:09:05.629Z,50.05
2019-03-19T08:11:38.139Z,47.73
2019-03-19T08:14:10.443Z,49.30
2019-03-19T08:16:43.757Z,48.13
2019-03-19T08:19:16.040Z,47.30
2019-03-19T08:21:48.191Z,46.45
2019-03-19T08:24:20.586Z,48.33
2019-03-19T08:26:52.892Z,48.60
2019-03-19T08:29:25.304Z,49.33
2019-03-19T08:31:58.148Z,48.95
2019-03-19T08:34:30.771Z,48.10
2019-03-19T08:37:03.478Z,47.78
2019-03-19T08:39:36.630Z,50.15
2019-03-19T08:42:09.188Z,47.08
2019-03-19T08:44:42.133Z,46.77
2019-03-19T08:47:16.336Z,47.43
2019-03-19T08:49:48.806Z,48.02
2019-03-19T08:52:21.435Z,48.20
2019-03-19T08:54:53.826Z,48.25
2019-03-19T08:57:26.252Z,48.28
2019-03-19T08:59:58.588Z,48.45
2019-03-19T09:02:31.088Z,45.65
2019-03-19T09:05:03.388Z,45.98
2019-03-19T09:07:36.209Z,47.55
2019-03-19T09:10:10.737Z,46.45
2019-03-19T09:12:43.276Z,44.93
2019-03-19T09:15:17.978Z,48.78
2019-03-19T09:17:50.473Z,47.17
2019-03-19T09:20:22.777Z,46.92
2019-03-19T09:22:55.580Z,45.70
2019-03-19T09:25:27.984Z,46.85
2019-03-19T09:28:00.999Z,46.70
2019-03-19T09:30:33.525Z,45.98
2019-03-19T09:33:06.368Z,47.13
2019-03-19T09:35:38.699Z,46.63
2019-03-19T09:38:11.517Z,45.67
2019-03-19T09:40:43.627Z,46.63
2019-03-19T09:43:16.328Z,46.13
2019-03-19T09:45:48.910Z,46.85
2019-03-19T09:48:21.348Z,47.48
2019-03-19T09:50:53.741Z,45.63
2019-03-19T09:53:26.428Z,45.48
2019-03-19T09:55:58.898Z,44.30
2019-03-19T09:58:31.827Z,47.20
2019-03-19T10:01:05.115Z,46.80
2019-03-19T10:03:37.794Z,49.25
2019-03-19T10:06:14.323Z,46.42
2019-03-19T10:08:44.337Z,48.80
2019-03-19T10:11:17.386Z,47.15
2019-03-19T10:13:50.291Z,46.23
2019-03-19T10:16:22.584Z,46.05
2019-03-19T10:18:54.946Z,47.25
2019-03-19T10:21:27.259Z,47.10
2019-03-19T10:24:00.362Z,49.13
2019-03-19T10:26:32.885Z,112.03
2019-03-19T10:29:06.010Z,50.50
2019-03-19T10:31:38.521Z,53.00
2019-03-19T10:34:11.161Z,55.25
2019-03-19T10:36:43.534Z,51.10
2019-03-19T10:39:16.335Z,47.75
2019-03-19T10:41:48.864Z,54.77
2019-03-19T10:44:21.706Z,48.23
2019-03-19T10:46:55.085Z,47.58
2019-03-19T10:49:27.612Z,53.65
2019-03-19T10:52:00.078Z,54.27
2019-03-19T10:54:33.199Z,51.85
2019-03-19T10:57:05.469Z,51.75
2019-03-19T10:59:48.527Z,54.20
2019-03-19T11:02:11.713Z,59.42
2019-03-19T11:04:44.200Z,52.25
2019-03-19T11:07:16.561Z,53.98
2019-03-19T11:09:49.424Z,52.55
2019-03-19T11:12:21.965Z,52.48
2019-03-19T11:14:55.195Z,47.93
2019-03-19T11:17:28.486Z,63.02
2019-03-19T11:20:01.338Z,53.35
2019-03-19T11:22:34.067Z,53.90
2019-03-19T11:25:08.828Z,54.58
2019-03-19T11:27:41.074Z,57.10
2019-03-19T11:30:15.999Z,59.03
2019-03-19T11:32:48.269Z,64.70
2019-03-19T11:35:21.618Z,57.98
2019-03-19T11:37:54.299Z,50.23
2019-03-19T11:40:26.702Z,55.10
2019-03-19T11:42:59.254Z,52.13
2019-03-19T11:45:32.236Z,51.33
2019-03-19T11:48:04.594Z,53.15
2019-03-19T11:50:37.308Z,54.58
2019-03-19T11:53:09.706Z,55.92
2019-03-19T11:55:42.355Z,54.13
2019-03-19T11:58:14.699Z,53.33
2019-03-19T12:00:48.532Z,51.20
2019-03-19T12:03:20.901Z,54.50
2019-03-19T12:05:53.744Z,53.92
2019-03-19T12:08:26.395Z,58.50
2019-03-19T12:10:59.110Z,56.68
2019-03-19T12:13:32.816Z,64.58
2019-03-19T12:16:07.572Z,59.20
2019-03-19T12:18:39.974Z,59.63
2019-03-19T12:21:12.318Z,61.48
2019-03-19T12:23:44.680Z,60.48
2019-03-19T12:26:17.104Z,61.18
2019-03-19T12:28:49.308Z,59.75
2019-03-19T12:31:22.356Z,60.78
2019-03-19T12:33:54.742Z,58.55
2019-03-19T12:36:28.891Z,59.13
2019-03-19T12:39:01.295Z,56.60
2019-03-19T12:41:35.276Z,60.12
2019-03-19T12:44:07.665Z,53.15
2019-03-19T12:46:40.688Z,60.48
2019-03-19T12:49:13.022Z,57.73
2019-03-19T12:51:45.377Z,68.33
2019-03-19T12:54:17.731Z,61.25
2019-03-19T12:56:50.346Z,54.70
2019-03-19T12:59:23.045Z,57.90
2019-03-19T13:01:55.832Z,64.20
2019-03-19T13:04:28.539Z,61.40
2019-03-19T13:07:01.461Z,62.33
2019-03-19T13:09:33.763Z,59.58
2019-03-19T13:12:06.484Z,65.03
2019-03-19T13:14:39.009Z,77.32
2019-03-19T13:17:11.814Z,64.03
2019-03-19T13:19:44.446Z,59.48
2019-03-19T13:22:16.868Z,60.90
2019-03-19T13:24:49.166Z,64.82
2019-03-19T13:27:21.681Z,61.35
2019-03-19T13:29:54.018Z,63.90
2019-03-19T13:32:28.237Z,65.42
2019-03-19T13:35:00.367Z,66.90
2019-03-19T13:37:32.873Z,63.42
2019-03-19T13:40:06.737Z,67.05
2019-03-19T13:42:39.231Z,69.55
2019-03-19T13:45:13.786Z,74.15
2019-03-19T13:47:46.268Z,70.42
2019-03-19T13:50:20.626Z,75.17
2019-03-19T13:52:53.306Z,72.35
2019-03-19T13:55:26.132Z,72.53
2019-03-19T13:57:58.654Z,69.75
2019-03-19T14:00:31.370Z,72.97
2019-03-19T14:03:03.994Z,64.65
2019-03-19T14:05:36.392Z,59.83
2019-03-19T14:08:09.087Z,59.85
2019-03-19T14:10:41.401Z,58.35
2019-03-19T14:13:14.130Z,60.20
2019-03-19T14:15:46.643Z,74.75
2019-03-19T14:18:19.941Z,65.83
2019-03-19T14:20:52.416Z,67.53
2019-03-19T14:23:24.787Z,64.37
2019-03-19T14:25:57.382Z,68.52
2019-03-19T14:28:29.676Z,58.10
2019-03-19T14:31:08.391Z,61.83
2019-03-19T14:33:36.018Z,63.45
2019-03-19T14:36:10.281Z,54.98
2019-03-19T14:38:47.168Z,60.25
2019-03-19T14:41:16.278Z,54.10
2019-03-19T14:43:48.618Z,57.08
2019-03-19T14:46:21.103Z,54.80
2019-03-19T14:48:53.751Z,54.05
2019-03-19T14:51:26.453Z,54.23
2019-03-19T14:53:58.979Z,52.45
2019-03-19T14:56:31.581Z,53.28
2019-03-19T14:59:04.332Z,54.10
2019-03-19T15:01:37.461Z,52.80
2019-03-19T15:04:10.198Z,53.42
2019-03-19T15:06:42.846Z,50.00
2019-03-19T15:09:15.355Z,49.10
2019-03-19T15:11:47.474Z,49.20
2019-03-19T15:14:20.247Z,46.02
2019-03-19T15:16:52.346Z,44.08
2019-03-19T15:19:24.947Z,42.98
2019-03-19T15:21:58.553Z,42.00
2019-03-19T15:24:31.179Z,40.45
2019-03-19T15:27:03.584Z,42.88
2019-03-19T15:29:36.379Z,43.28
2019-03-19T15:32:08.934Z,43.28
2019-03-19T15:34:41.459Z,41.10
2019-03-19T15:37:14.321Z,40.03
2019-03-19T15:39:47.105Z,36.28
2019-03-19T15:42:19.640Z,40.12
2019-03-19T15:44:51.945Z,37.70
2019-03-19T15:47:25.032Z,37.73
2019-03-19T15:49:57.838Z,41.02
2019-03-19T15:52:30.451Z,46.20
2019-03-19T15:55:02.898Z,43.20
2019-03-19T15:57:35.652Z,43.90
2019-03-19T16:00:10.733Z,46.30
2019-03-19T16:02:44.104Z,49.80
2019-03-19T16:05:17.155Z,54.83
2019-03-19T16:07:49.562Z,43.98
2019-03-19T16:10:22.520Z,45.63
2019-03-19T16:12:55.210Z,49.30
2019-03-19T16:15:28.249Z,48.48
2019-03-19T16:18:01.066Z,50.20
2019-03-19T16:20:33.302Z,46.28
2019-03-19T16:23:05.827Z,47.27
2019-03-19T16:25:38.060Z,50.92
2019-03-19T16:28:10.717Z,50.25
2019-03-19T16:30:43.053Z,54.18
2019-03-19T16:33:15.765Z,48.68
2019-03-19T16:35:48.422Z,50.38
2019-03-19T16:38:21.647Z,53.42
2019-03-19T16:40:53.844Z,49.60
2019-03-19T16:43:26.683Z,51.45
2019-03-19T16:45:59.799Z,51.90
2019-03-19T16:48:32.449Z,50.63
2019-03-19T16:51:04.958Z,44.88
2019-03-19T16:53:37.517Z,50.80
2019-03-19T16:56:10.242Z,52.33
2019-03-19T16:58:42.951Z,58.33
2019-03-19T17:01:15.542Z,49.23
2019-03-19T17:03:47.884Z,47.60
2019-03-19T17:06:20.276Z,49.23
2019-03-19T17:08:52.931Z,55.17
2019-03-19T17:11:25.157Z,56.15
2019-03-19T17:13:57.515Z,54.40
2019-03-19T17:16:29.813Z,52.23
2019-03-19T17:19:04.096Z,52.58
2019-03-19T17:21:35.931Z,51.90
2019-03-19T17:24:08.611Z,57.73
2019-03-19T17:26:41.367Z,52.73
2019-03-19T17:29:14.076Z,54.27
2019-03-19T17:31:46.403Z,55.85
2019-03-19T17:34:19.017Z,55.50
2019-03-19T17:36:51.343Z,52.65
2019-03-19T17:39:23.674Z,53.15
2019-03-19T17:41:56.316Z,50.23
2019-03-19T17:44:28.661Z,51.28
2019-03-19T17:47:01.402Z,49.23
2019-03-19T17:49:34.531Z,56.23
2019-03-19T17:52:07.420Z,52.50
2019-03-19T17:54:39.807Z,46.90
2019-03-19T17:57:12.494Z,48.15
2019-03-19T17:59:44.918Z,44.50
2019-03-19T18:02:23.896Z,47.65
2019-03-19T18:04:52.692Z,48.70
2019-03-19T18:07:25.710Z,47.90
2019-03-19T18:09:58.824Z,47.33
2019-03-19T18:12:31.549Z,53.10
2019-03-19T18:15:03.883Z,49.45
2019-03-19T18:17:36.467Z,48.02
2019-03-19T18:20:11.032Z,45.30
2019-03-19T18:22:43.992Z,47.23
2019-03-19T18:25:18.662Z,46.15
2019-03-19T18:27:51.052Z,47.95
2019-03-19T18:30:25.962Z,44.90
2019-03-19T18:32:58.702Z,43.92
2019-03-19T18:35:31.023Z,44.55
2019-03-19T18:38:03.784Z,45.90
2019-03-19T18:40:36.192Z,48.78
2019-03-19T18:43:09.349Z,47.03
2019-03-19T18:45:42.164Z,43.45
2019-03-19T18:48:15.977Z,44.73
2019-03-19T18:50:48.585Z,44.80
2019-03-19T18:53:21.629Z,47.60
2019-03-19T18:55:54.204Z,48.23
2019-03-19T18:58:26.604Z,44.67
2019-03-19T19:00:58.848Z,47.35
2019-03-19T19:03:31.337Z,48.45
2019-03-19T19:06:03.873Z,49.13
2019-03-19T19:08:36.482Z,50.58
2019-03-19T19:11:09.372Z,50.70
2019-03-19T19:13:42.049Z,48.50
2019-03-19T19:16:14.302Z,55.03
2019-03-19T19:18:46.969Z,55.03
2019-03-19T19:21:19.303Z,52.33
2019-03-19T19:23:52.028Z,56.18
2019-03-19T19:26:24.353Z,55.43
2019-03-19T19:28:56.877Z,53.10
2019-03-19T19:31:29.376Z,56.33
2019-03-19T19:34:01.948Z,54.15
2019-03-19T19:36:34.771Z,57.05
2019-03-19T19:39:08.767Z,54.23
2019-03-19T19:41:41.210Z,55.80
2019-03-19T19:44:13.760Z,58.65
2019-03-19T19:46:46.194Z,59.27
2019-03-19T19:49:19.548Z,55.98
2019-03-19T19:51:52.003Z,51.83
2019-03-19T19:54:24.648Z,55.60
2019-03-19T19:56:57.353Z,52.10
2019-03-19T19:59:30.198Z,54.38
2019-03-19T20:02:02.786Z,51.08
2019-03-19T20:04:35.378Z,60.92
2019-03-19T20:07:07.796Z,59.55
2019-03-19T20:09:40.422Z,54.88
2019-03-19T20:12:12.702Z,51.15
2019-03-19T20:14:45.325Z,53.35
2019-03-19T20:17:17.750Z,53.10
2019-03-19T20:19:49.990Z,56.20
2019-03-19T20:22:22.320Z,58.13
2019-03-19T20:24:54.741Z,54.70
2019-03-19T20:27:27.260Z,55.95
2019-03-19T20:29:59.778Z,54.55
2019-03-19T20:32:32.602Z,52.20
2019-03-19T20:35:06.035Z,52.30
2019-03-19T20:37:38.874Z,55.08
2019-03-19T20:40:13.616Z,52.80
2019-03-19T20:42:46.240Z,57.58
2019-03-19T20:45:21.677Z,54.40
2019-03-19T20:47:54.263Z,53.15
2019-03-19T20:50:29.493Z,53.20
2019-03-19T20:53:02.134Z,54.98
2019-03-19T20:55:34.851Z,60.67
2019-03-19T20:58:07.954Z,58.40
2019-03-19T21:00:40.489Z,58.13
2019-03-19T21:03:13.024Z,59.63
2019-03-19T21:05:46.287Z,57.27
2019-03-19T21:08:18.644Z,59.33
2019-03-19T21:10:50.940Z,55.28
2019-03-19T21:13:23.376Z,55.48
2019-03-19T21:15:56.292Z,57.30
2019-03-19T21:18:28.781Z,56.25
2019-03-19T21:21:01.529Z,57.78
2019-03-19T21:23:33.942Z,56.15
2019-03-19T21:26:06.590Z,65.37
2019-03-19T21:28:38.995Z,57.25
2019-03-19T21:31:11.895Z,62.17
2019-03-19T21:33:51.273Z,53.45
2019-03-19T21:36:18.607Z,60.10
2019-03-19T21:38:50.765Z,62.93
2019-03-19T21:41:23.543Z,61.95
2019-03-19T21:43:55.826Z,61.98
2019-03-19T21:46:28.304Z,58.65
2019-03-19T21:49:00.903Z,56.35
2019-03-19T21:51:34.427Z,61.40
2019-03-19T21:54:06.983Z,56.90
2019-03-19T21:56:39.478Z,63.58
2019-03-19T21:59:12.038Z,60.03
2019-03-19T22:01:45.265Z,59.42
2019-03-19T22:04:18.289Z,59.23
2019-03-19T22:06:50.676Z,56.55
2019-03-19T22:09:23.334Z,57.40
2019-03-19T22:11:55.986Z,64.30
2019-03-19T22:14:28.823Z,63.90
2019-03-19T22:17:01.200Z,59.73
2019-03-19T22:19:33.561Z,62.08
2019-03-19T22:22:05.981Z,56.42
2019-03-19T22:24:38.857Z,55.78
2019-03-19T22:27:11.266Z,63.63
2019-03-19T22:29:43.875Z,65.22
2019-03-19T22:32:16.550Z,69.95
2019-03-19T22:34:49.696Z,65.32
2019-03-19T22:37:22.264Z,70.60
2019-03-19T22:39:54.955Z,75.83
2019-03-19T22:42:27.683Z,71.75
2019-03-19T22:45:00.041Z,68.92
2019-03-19T22:47:33.204Z,74.55
2019-03-19T22:50:06.968Z,71.75
2019-03-19T22:52:39.395Z,66.75
2019-03-19T22:55:13.592Z,80.00
2019-03-19T22:57:46.560Z,73.40
2019-03-19T23:00:23.244Z,77.97
2019-03-19T23:02:57.373Z,71.45
2019-03-19T23:05:29.992Z,71.97
2019-03-19T23:08:02.777Z,80.72
2019-03-19T23:10:35.741Z,78.07
2019-03-19T23:13:08.683Z,86.17
2019-03-19T23:15:41.808Z,78.55
2019-03-19T23:18:14.665Z,78.70
2019-03-19T23:20:47.304Z,79.30
2019-03-19T23:23:19.964Z,73.67
2019-03-19T23:25:52.371Z,76.60
2019-03-19T23:28:25.236Z,83.10
2019-03-19T23:30:57.548Z,78.00
2019-03-19T23:33:29.951Z,85.80
2019-03-19T23:36:02.612Z,82.57
2019-03-19T23:38:35.102Z,92.47
2019-03-19T23:41:07.937Z,85.00
2019-03-19T23:43:40.258Z,89.35
2019-03-19T23:46:12.777Z,91.78
2019-03-19T23:48:45.163Z,94.03
2019-03-19T23:51:17.809Z,96.92
2019-03-19T23:53:50.234Z,87.45
2019-03-19T23:56:22.602Z,89.77
2019-03-19T23:58:55.228Z,92.22
